ポンペイ国際空港の過去48時間の天気

ポンペイ国際空港 (Pohnpei Island, Pohnpei Int. Airp., Micronesia)

現在時刻: 1/19 22:31 +11 (1/19 11:31 UTC) 以下の時間は現地時間です。

過去48時間のMETAR気象情報
時間 風向 風速(m/s) 視程 気温(℃) 湿度(%) 気圧(hPa) 天気現象
19 21:50 東北東 5 10km以上 27 89 1010
19 20:56 2 10km以上 27 89 1009
19 19:56 東北東 4 10km以上 28 84 1008
19 18:50 東北東 5 10km以上 28 84 1008
19 17:58 東北東 4 10km以上 29 84 1007
19 16:50 4 10km以上 31 70 1007
19 15:51 5 10km以上 31 70 1007
19 14:51 東北東 5 10km以上 31 70 1007
19 13:50 東北東 5 10km以上 31 70 1008
19 12:50 東南東 4 10km以上 31 70 1008
19 11:50 東北東 5 10km以上 31 70 1010
19 10:50 東北東 5 10km以上 31 70 1010
19 09:55 北東 5 10km以上 28 84 1010
19 08:55 東北東 5 10km以上 28 84 -
19 07:55 東北東 4 10km以上 28 84 1009
18 18:51 5 10km以上 28 84 1007
18 17:56 東北東 5 10km以上 29 79 1007
18 16:50 5 10km以上 29 84 1006
18 15:55 5 10km以上 30 75 1006
18 14:51 5 10km以上 31 70 1006
18 13:50 東南東 4 10km以上 31 70 1007
18 12:50 南南東 5 10km以上 31 70 1007
18 11:54 6 10km以上 29 84 1008
18 10:50 8 10km以上 29 84 1009
18 09:50 東北東 8 10km以上 29 84 1009
18 08:55 南南東 5 10km以上 29 79 1008
18 07:51 5 10km以上 28 84 1007
18 06:50 5 10km以上 27 89 1007 周辺でしゅう雨
18 05:56 東南東 5 10km以上 27 89 1007
PTPN 191050Z 07010KT 15SM BKN018TCU OVC300 27/25 A2981 RMK TCU OHD AND SE-W
PTPN 190956Z 10004KT 15SM BKN018TCU OVC300 27/25 A2980 RMK TCU E-S
PTPN 190856Z 07007KT 15SM BKN018 OVC300 28/25 A2978
PTPN 190750Z 07010KT 15SM BKN018 OVC300 28/25 A2977
PTPN 190658Z 06008KT 15SM BKN018 OVC300 29/26 A2975
PTPN 0550Z 08008KT 15SM SCT018 OVC300 31/25 A2974
PTPN 190451Z 09010KT 15SM SCT018 BKN130 OVC300 31/25 A2973
PTPN 190351Z 07010KT 15SM SCT018 BKN130 OVC300 31/25 A2974
PTPN 190250Z 06010KT 15SM SCT018 BKN130 OVC300 31/25 A2976
PTPN 190150Z 12007KT 15SM SCT018 BKN130 OVC300 31/25 A2978
PTPN 190050Z 07010KT 15SM SCT018TCU BKN130 OVC300 31/25 A2981 RMK TCU SE-SW
PTPN 182350Z 07010KT 15SM BKN018TCU BKN130 OVC300 31/25 A2982 RMK TCU SE-SW
PTPN 182255Z 05010KT 15SM BKN018TCU OVC300 28/25 A2982 RMK TCU SE-SW
PTPN 182155Z 06010KT 15SM BKN018TCU OVC300 28/25 A298
PTPN 182055Z 06008KT 15SM BKN018TCU OVC300 28/25 A2980 RMK TCU ALQDS FIRST
PTPN 180751Z 08010KT 15SM BKN018 OVC130 28/25 A2975 RMK LAST
PTPN 180656Z 07010KT 15SM SCT018 OVC130 29/25 A2973
PTPN 180550Z 08010KT 15SM SCT018 BKN130 OVC300 29/26 A2971
PTPN 180455Z 09010KT 15SM SCT018 BKN130 OVC300 30/25 A2971
PTPN 180351Z 09010KT 15SM SCT018 BKN130 OVC300 31/25 A2970
PTPN 180250Z 11007KT 15SM SCT018 BKN130 OVC300 31/25 A2973
PTPN 180150Z 15009KT 15SM SCT018 BKN130 OVC300 31/25 A2975
PTPN 180054Z 09012KT 15SM SCT018TCU BKN130 OVC300 29/26 A2977 RMK TCU S
PTPN 172350Z 08015G20KT 15SM BKN018TCU BKN130 OVC300 29/26 A2979 RMK TCU OHD AND SE-S
PTPN 172250Z 07015KT 15SM SCT018TCU BKN130 OVC300 29/26 A2979 RMK TCU SE-S
PTPN 172155Z 15009KT 15SM SCT018TCU BKN130 OVC300 29/25 A2978 RMK TCU SE-S
PTPN 172051Z 10010KT 15SM BKN018TCU BKN130 OVC300 28/25 A2975 RMK TCU E-SW
PTPN 171950Z 08010KT 12SM VCSH BKN017TCU OVC130 27/25 A2973 RMK VCSH E TCU ALQDS
PTPN 171856Z 11010KT 15SM BKN017TCU OVC130 27/25 A2973 RMK TCU ALQDS FIRST